Lansing, West Virginia
Current Conditions -  °F | °C
As of 12:51 PM on Saturday 20 Dec 2014 (Local Time) from KBKW Reporting Station
Overcast Overcast  
Wind Chill: 35°   Ceiling: 1100
Heat Index: 35°   Visibility: 10mi
Dew Point: 27°   Wind: 3mph
Humidity: 72%   Direction: 270°W
Pressure: 30.14"   Gusts: NA
Location:  38.07°N, 81.07°W
Report Text: KBKW 201751Z AUTO 27003KT 10SM OVC011 02/M03 A3014 RMK AO2 SLP237 60000 T00171028 10017 21033 58010
Loading
Personal Weather Stations






























Interactive Weather Map New forecast layout! Learn more

10-Day Weather Forecast

Advertisements
Track Severe Weather on mobile